Time;durP1;ratioP1;P1;durP2;ratioP2;P2;SDS_P1;SDS_P2;PMS_P1;PMS_P2;Temp;Humidity;BMP_temperature;BMP_pressure;BME280_temperature;BME280_humidity;BME280_pressure;Samples;Min_cycle;Max_cycle;Signal;HPM_P1;HPM_P2
2022/12/26 00:00:53;;;;;;;;;;;8.80;99.90;;;;;;5115956;28;20290;-41
2022/12/26 00:03:19;;;;;;;;;;;8.80;99.90;;;;;;5115046;28;19908;-41
2022/12/26 00:05:44;;;;;;;;;;;8.90;99.90;;;;;;5099414;28;19995;-41
2022/12/26 00:08:10;;;;;;;;;;;8.80;99.90;;;;;;5094616;28;19916;-41
2022/12/26 00:10:35;;;;;;;;;;;8.80;99.90;;;;;;5100289;28;20278;-40
2022/12/26 00:13:01;;;;;;;;;;;8.90;99.90;;;;;;5115574;28;19954;-39
2022/12/26 00:15:26;;;;;;;;;;;8.90;99.90;;;;;;5115414;28;20358;-40
2022/12/26 00:17:51;;;;;;;;;;;8.80;99.90;;;;;;5114772;28;19908;-41
2022/12/26 00:20:17;;;;;;;;;;;8.90;99.90;;;;;;5115619;28;19931;-39
2022/12/26 00:22:43;;;;;;;;;;;8.90;99.90;;;;;;5112936;28;20014;-41
2022/12/26 00:25:08;;;;;;;;;;;8.90;99.90;;;;;;5114851;28;20278;-40
2022/12/26 00:27:34;;;;;;;;;;;8.80;99.90;;;;;;5115253;28;20018;-41
2022/12/26 00:29:59;;;;;;;;;;;8.90;99.90;;;;;;5115181;28;19912;-40
2022/12/26 00:32:25;;;;;;;;;;;8.90;99.90;;;;;;5114216;28;19927;-40
2022/12/26 00:34:50;;;;;;;;;;;8.90;99.90;;;;;;5106543;28;19984;-40
2022/12/26 00:37:15;;;;;;;;;;;8.90;99.90;;;;;;5094890;28;19986;-41
2022/12/26 00:39:41;;;;;;;;;;;8.80;99.90;;;;;;5093792;28;19908;-39
2022/12/26 00:42:06;;;;;;;;;;;8.90;99.90;;;;;;5094780;28;19931;-39
2022/12/26 00:44:32;;;;;;;;;;;8.90;99.90;;;;;;5094292;28;19908;-40
2022/12/26 00:46:57;;;;;;;;;;;8.90;99.90;;;;;;5093645;28;20025;-39
2022/12/26 00:49:23;;;;;;;;;;;8.90;99.90;;;;;;5099089;28;19923;-40
2022/12/26 00:51:48;;;;;;;;;;;8.80;99.90;;;;;;5109624;28;19916;-39
2022/12/26 00:54:14;;;;;;;;;;;8.90;99.90;;;;;;5094525;28;20409;-40
2022/12/26 00:56:39;;;;;;;;;;;8.90;99.90;;;;;;5094220;28;20005;-40
2022/12/26 00:59:05;;;;;;;;;;;8.90;99.90;;;;;;5093646;28;19915;-42
2022/12/26 01:01:31;;;;;;;;;;;8.80;99.90;;;;;;5094394;28;20330;-40
2022/12/26 01:03:57;;;;;;;;;;;8.90;99.90;;;;;;5094320;28;19909;-40
2022/12/26 01:06:22;;;;;;;;;;;8.90;99.90;;;;;;5093305;28;20305;-41
2022/12/26 01:08:47;;;;;;;;;;;8.90;99.90;;;;;;5094113;28;19922;-41
2022/12/26 01:11:14;;;;;;;;;;;8.90;99.90;;;;;;5094266;28;19908;-41
2022/12/26 01:13:39;;;;;;;;;;;8.90;99.90;;;;;;5093100;28;19923;-41
2022/12/26 01:16:05;;;;;;;;;;;8.90;99.90;;;;;;5093924;28;19908;-39
2022/12/26 01:18:31;;;;;;;;;;;8.90;99.90;;;;;;5096036;28;20299;-39
2022/12/26 01:21:00;;;;;;;;;;;8.90;99.90;;;;;;5113655;28;19912;-41
2022/12/26 01:23:26;;;;;;;;;;;8.90;99.90;;;;;;5114159;28;19960;-41
2022/12/26 01:25:52;;;;;;;;;;;8.90;99.90;;;;;;5114733;28;19908;-39
2022/12/26 01:28:17;;;;;;;;;;;8.90;99.90;;;;;;5112268;28;19919;-41
2022/12/26 01:30:42;;;;;;;;;;;8.90;99.90;;;;;;5114150;28;20668;-40
2022/12/26 01:33:08;;;;;;;;;;;8.90;99.90;;;;;;5113661;28;19920;-41
2022/12/26 01:35:33;;;;;;;;;;;8.90;99.90;;;;;;5113256;28;19908;-41
2022/12/26 01:37:59;;;;;;;;;;;8.90;99.90;;;;;;5113962;28;19961;-41
2022/12/26 01:40:25;;;;;;;;;;;8.90;99.90;;;;;;5113873;28;19912;-40
2022/12/26 01:42:50;;;;;;;;;;;8.90;99.90;;;;;;5113110;28;19912;-39
2022/12/26 01:45:21;;;;;;;;;;;9.00;99.90;;;;;;5113949;28;20379;-41
2022/12/26 01:47:47;;;;;;;;;;;8.90;99.90;;;;;;5113777;28;19916;-39
2022/12/26 01:50:33;;;;;;;;;;;9.00;99.90;;;;;;5096583;28;19918;-41
2022/12/26 01:53:01;;;;;;;;;;;9.00;99.90;;;;;;5079387;28;19912;-42
2022/12/26 01:55:27;;;;;;;;;;;8.90;99.90;;;;;;5094485;28;19961;-41
2022/12/26 01:57:55;;;;;;;;;;;9.00;99.90;;;;;;5113642;28;19908;-41
2022/12/26 02:00:21;;;;;;;;;;;9.00;99.90;;;;;;5113586;28;19954;-40
2022/12/26 02:05:33;;;;;;;;;;;9.00;99.90;;;;;;5113894;28;19964;-41
2022/12/26 02:07:59;;;;;;;;;;;9.00;99.90;;;;;;5113580;28;20317;-41
2022/12/26 02:10:25;;;;;;;;;;;9.00;99.90;;;;;;5112703;28;19907;-40
2022/12/26 02:12:51;;;;;;;;;;;9.00;99.90;;;;;;5113178;28;20313;-42
2022/12/26 02:15:17;;;;;;;;;;;9.00;99.90;;;;;;5108557;28;19912;-38
2022/12/26 02:17:43;;;;;;;;;;;9.10;99.90;;;;;;5092249;28;20240;-40
2022/12/26 02:20:19;;;;;;;;;;;9.10;99.90;;;;;;5106906;28;20336;-39
2022/12/26 02:22:48;;;;;;;;;;;9.10;99.90;;;;;;5113193;28;20382;-41
2022/12/26 02:25:19;;;;;;;;;;;9.10;99.90;;;;;;5112555;28;19937;-40
2022/12/26 02:27:50;;;;;;;;;;;9.10;99.90;;;;;;5113131;28;19923;-40
2022/12/26 02:30:34;;;;;;;;;;;9.10;99.90;;;;;;5112391;28;19907;-39
2022/12/26 02:33:15;;;;;;;;;;;9.10;99.90;;;;;;5112769;28;19930;-41
2022/12/26 02:35:49;;;;;;;;;;;9.10;99.90;;;;;;5109214;28;19912;-40
2022/12/26 02:38:23;;;;;;;;;;;9.10;99.90;;;;;;5092011;28;20465;-41
2022/12/26 02:40:52;;;;;;;;;;;9.10;99.90;;;;;;5092751;28;20278;-41
2022/12/26 02:43:26;;;;;;;;;;;9.10;99.90;;;;;;5092859;28;20139;-40
2022/12/26 02:48:46;;;;;;;;;;;9.10;99.90;;;;;;5093516;28;19923;-39
2022/12/26 03:14:17;;;;;;;;;;;9.10;99.90;;;;;;5096238;28;20029;-40
2022/12/26 03:19:31;;;;;;;;;;;9.20;99.90;;;;;;5115056;28;19998;-40
2022/12/26 03:21:57;;;;;;;;;;;9.20;99.90;;;;;;5116713;28;19912;-40
2022/12/26 03:24:24;;;;;;;;;;;9.20;99.90;;;;;;5116588;28;19908;-39
2022/12/26 03:26:51;;;;;;;;;;;9.20;99.90;;;;;;5116099;28;20257;-40
2022/12/26 03:32:04;;;;;;;;;;;9.30;99.90;;;;;;5116136;28;19926;-40
2022/12/26 03:34:30;;;;;;;;;;;9.20;99.90;;;;;;5115475;28;19957;-41
2022/12/26 03:37:14;;;;;;;;;;;9.30;99.90;;;;;;5116780;28;20324;-39
2022/12/26 04:19:39;;;;;;;;;;;9.30;99.90;;;;;;5115269;28;19915;-40
2022/12/26 04:44:56;;;;;;;;;;;9.30;99.90;;;;;;5093194;28;19915;-39
2022/12/26 04:47:22;;;;;;;;;;;9.40;99.90;;;;;;5093261;28;19912;-41
2022/12/26 04:55:16;;;;;;;;;;;9.30;99.90;;;;;;5114576;28;19914;-40
2022/12/26 04:57:42;;;;;;;;;;;9.30;99.90;;;;;;5114607;28;19911;-40
2022/12/26 05:00:07;;;;;;;;;;;9.30;99.90;;;;;;5114207;28;19967;-40
2022/12/26 05:10:45;;;;;;;;;;;9.20;99.90;;;;;;5094247;28;19999;-43
2022/12/26 05:13:11;;;;;;;;;;;9.10;99.90;;;;;;5093116;28;19931;-39
2022/12/26 05:28:40;;;;;;;;;;;9.10;99.90;;;;;;5094091;28;20282;-40
2022/12/26 05:29:37;;;;;;;;;;;9.10;99.90;;;;;;5093806;28;20400;-40
2022/12/26 05:32:03;;;;;;;;;;;9.20;99.90;;;;;;5093702;28;19971;-41
2022/12/26 05:34:28;;;;;;;;;;;9.10;99.90;;;;;;5092909;28;19909;-40
2022/12/26 05:36:55;;;;;;;;;;;9.20;99.90;;;;;;5093659;28;19908;-39
2022/12/26 05:39:21;;;;;;;;;;;9.20;99.90;;;;;;5093479;28;19916;-39
2022/12/26 05:41:47;;;;;;;;;;;9.10;99.90;;;;;;5092778;28;20116;-40
2022/12/26 05:44:13;;;;;;;;;;;9.10;99.90;;;;;;5098342;28;19907;-41
2022/12/26 05:46:38;;;;;;;;;;;9.20;99.90;;;;;;5093347;28;19912;-40
2022/12/26 05:49:04;;;;;;;;;;;9.20;99.90;;;;;;5092671;28;20264;-39
2022/12/26 05:51:30;;;;;;;;;;;9.20;99.90;;;;;;5093243;28;19966;-39
2022/12/26 05:53:55;;;;;;;;;;;9.20;99.90;;;;;;5093217;28;19909;-40
2022/12/26 05:56:21;;;;;;;;;;;9.20;99.90;;;;;;5105123;28;19908;-40
2022/12/26 05:58:52;;;;;;;;;;;9.20;99.90;;;;;;5101124;28;19919;-40
2022/12/26 06:01:18;;;;;;;;;;;9.20;99.90;;;;;;5092504;28;20332;-39
2022/12/26 06:03:47;;;;;;;;;;;9.20;99.90;;;;;;5093100;28;19919;-40
2022/12/26 06:06:13;;;;;;;;;;;9.10;99.90;;;;;;5093209;28;20282;-39
2022/12/26 06:08:39;;;;;;;;;;;9.10;99.90;;;;;;5092088;28;19917;-39
2022/12/26 06:11:06;;;;;;;;;;;9.10;99.90;;;;;;5093168;28;19908;-40
2022/12/26 06:13:31;;;;;;;;;;;9.10;99.90;;;;;;5092920;28;19915;-40
2022/12/26 06:15:57;;;;;;;;;;;9.10;99.90;;;;;;5095561;28;19907;-39
2022/12/26 06:18:23;;;;;;;;;;;9.10;99.90;;;;;;5113335;28;20434;-44
2022/12/26 06:20:48;;;;;;;;;;;9.10;99.90;;;;;;5113355;28;19915;-40
2022/12/26 06:23:13;;;;;;;;;;;9.20;99.90;;;;;;5112391;28;19988;-38
2022/12/26 06:25:39;;;;;;;;;;;9.20;99.90;;;;;;5113253;28;19908;-40
2022/12/26 06:28:04;;;;;;;;;;;9.10;99.90;;;;;;5112251;28;20033;-40
2022/12/26 06:30:30;;;;;;;;;;;9.20;99.90;;;;;;5112706;28;19915;-39
2022/12/26 06:32:55;;;;;;;;;;;9.20;99.90;;;;;;5112691;28;19927;-41
2022/12/26 06:35:21;;;;;;;;;;;9.20;99.90;;;;;;5113309;28;20268;-42
2022/12/26 06:37:46;;;;;;;;;;;9.20;99.90;;;;;;5112253;28;19915;-40
2022/12/26 06:40:12;;;;;;;;;;;9.20;99.90;;;;;;5113011;28;20410;-39
2022/12/26 06:42:37;;;;;;;;;;;9.20;99.90;;;;;;5112634;28;19911;-39
2022/12/26 06:45:03;;;;;;;;;;;9.20;99.90;;;;;;5112374;28;19914;-39
2022/12/26 06:47:28;;;;;;;;;;;9.20;99.90;;;;;;5112940;28;19919;-38
2022/12/26 06:49:54;;;;;;;;;;;9.20;99.90;;;;;;5113176;28;19951;-39
2022/12/26 06:52:19;;;;;;;;;;;9.20;99.90;;;;;;5092586;28;19927;-39
2022/12/26 06:54:45;;;;;;;;;;;9.30;99.90;;;;;;5093659;28;19908;-40
2022/12/26 06:57:10;;;;;;;;;;;9.20;99.90;;;;;;5092727;28;19958;-40
2022/12/26 06:59:36;;;;;;;;;;;9.30;99.90;;;;;;5091593;28;19908;-41
2022/12/26 07:02:01;;;;;;;;;;;9.30;99.90;;;;;;5074610;28;19908;-40
2022/12/26 07:04:27;;;;;;;;;;;9.30;99.90;;;;;;5109852;28;20154;-40
2022/12/26 07:06:52;;;;;;;;;;;9.20;99.90;;;;;;5112707;28;19915;-39
2022/12/26 07:09:18;;;;;;;;;;;9.30;99.90;;;;;;5112778;28;19947;-41
2022/12/26 07:11:47;;;;;;;;;;;9.30;99.90;;;;;;5111998;28;20278;-40
2022/12/26 07:14:13;;;;;;;;;;;9.30;99.90;;;;;;5112722;28;19986;-39
2022/12/26 07:16:39;;;;;;;;;;;9.30;99.90;;;;;;5094413;28;20003;-41
2022/12/26 07:19:05;;;;;;;;;;;9.30;99.90;;;;;;5111848;28;19996;-40
2022/12/26 07:21:31;;;;;;;;;;;9.30;99.90;;;;;;5100239;28;20402;-41
2022/12/26 07:23:56;;;;;;;;;;;9.30;99.90;;;;;;5092448;28;19948;-39
2022/12/26 07:26:22;;;;;;;;;;;9.30;99.90;;;;;;5091555;28;19908;-42
2022/12/26 07:28:51;;;;;;;;;;;9.30;99.90;;;;;;5094678;28;19920;-39
2022/12/26 07:31:17;;;;;;;;;;;9.20;99.90;;;;;;5110463;28;19935;-39
2022/12/26 07:33:45;;;;;;;;;;;9.20;99.90;;;;;;5112751;28;20368;-39
2022/12/26 07:36:11;;;;;;;;;;;9.20;99.90;;;;;;5110955;28;19912;-41
2022/12/26 07:38:36;;;;;;;;;;;9.20;99.90;;;;;;5110958;28;19918;-43
2022/12/26 07:41:56;;;;;;;;;;;9.20;99.90;;;;;;5110501;28;19915;-40
2022/12/26 07:43:50;;;;;;;;;;;9.20;99.90;;;;;;5109620;28;19961;-40
2022/12/26 07:46:15;;;;;;;;;;;9.20;99.90;;;;;;5111036;28;19907;-39
2022/12/26 07:48:41;;;;;;;;;;;9.10;99.90;;;;;;5110218;28;20290;-40
2022/12/26 07:51:06;;;;;;;;;;;9.10;99.90;;;;;;5107420;28;20267;-40
2022/12/26 07:53:32;;;;;;;;;;;9.10;99.90;;;;;;5111534;28;19912;-41
2022/12/26 07:55:58;;;;;;;;;;;9.10;99.90;;;;;;5111866;28;19958;-40
2022/12/26 07:58:24;;;;;;;;;;;9.10;99.90;;;;;;5105180;27;19922;-40
2022/12/26 08:00:49;;;;;;;;;;;9.10;99.90;;;;;;5135715;27;20324;-40
2022/12/26 08:03:15;;;;;;;;;;;9.00;99.90;;;;;;5126171;27;19907;-40
2022/12/26 08:05:43;;;;;;;;;;;9.00;99.90;;;;;;5115816;28;19912;-40
2022/12/26 08:08:09;;;;;;;;;;;9.00;99.90;;;;;;5104820;28;19916;-39
2022/12/26 08:10:34;;;;;;;;;;;9.10;99.90;;;;;;5095103;28;19954;-39
2022/12/26 08:12:59;;;;;;;;;;;9.00;99.90;;;;;;5096242;28;19908;-40
2022/12/26 08:15:25;;;;;;;;;;;9.00;99.90;;;;;;5121513;27;20467;-40
2022/12/26 08:17:50;;;;;;;;;;;9.00;99.90;;;;;;5136149;27;19908;-41
2022/12/26 08:20:16;;;;;;;;;;;9.00;99.90;;;;;;5121136;27;19950;-39
2022/12/26 08:22:41;;;;;;;;;;;9.00;99.90;;;;;;5114467;28;19987;-39
2022/12/26 08:25:07;;;;;;;;;;;9.00;99.90;;;;;;5115525;28;19907;-41
2022/12/26 08:27:33;;;;;;;;;;;8.90;99.90;;;;;;5115279;28;19916;-41
2022/12/26 08:29:58;;;;;;;;;;;9.00;99.90;;;;;;5114042;28;20335;-40
2022/12/26 08:32:24;;;;;;;;;;;9.00;99.90;;;;;;5114414;28;19981;-40
2022/12/26 08:34:49;;;;;;;;;;;9.00;99.90;;;;;;5113654;28;19907;-39
2022/12/26 08:37:15;;;;;;;;;;;9.00;99.90;;;;;;5112763;28;20336;-41
2022/12/26 08:39:40;;;;;;;;;;;9.10;99.90;;;;;;5112892;28;20403;-39
2022/12/26 08:42:05;;;;;;;;;;;9.10;99.90;;;;;;5112754;28;19908;-40
2022/12/26 08:44:31;;;;;;;;;;;9.20;99.90;;;;;;5108848;28;19916;-40
2022/12/26 08:46:56;;;;;;;;;;;9.30;99.90;;;;;;5106496;28;19942;-40
2022/12/26 08:49:22;;;;;;;;;;;9.30;99.90;;;;;;5112904;28;19927;-40
2022/12/26 08:51:47;;;;;;;;;;;9.30;99.90;;;;;;5108219;28;19966;-39
2022/12/26 08:54:13;;;;;;;;;;;9.30;99.90;;;;;;5111339;28;19962;-41
2022/12/26 08:56:38;;;;;;;;;;;9.40;99.90;;;;;;5113288;28;19934;-40
2022/12/26 08:59:04;;;;;;;;;;;9.40;99.90;;;;;;5113778;27;20318;-40
2022/12/26 09:01:30;;;;;;;;;;;9.40;99.90;;;;;;5113199;28;19961;-40
2022/12/26 09:03:56;;;;;;;;;;;9.50;99.90;;;;;;5114422;28;19908;-40
2022/12/26 09:06:22;;;;;;;;;;;9.50;99.90;;;;;;5113701;28;19908;-40
2022/12/26 09:08:48;;;;;;;;;;;9.50;99.90;;;;;;5114147;28;20010;-40
2022/12/26 09:11:15;;;;;;;;;;;9.50;99.90;;;;;;5129519;27;19907;-40
2022/12/26 09:13:41;;;;;;;;;;;9.60;99.90;;;;;;5134831;27;19911;-39
2022/12/26 09:16:17;;;;;;;;;;;9.60;99.90;;;;;;5134185;27;19922;-39
2022/12/26 09:18:43;;;;;;;;;;;9.60;99.90;;;;;;5104210;28;19919;-39
2022/12/26 09:21:10;;;;;;;;;;;9.60;99.90;;;;;;5095568;28;19944;-40
2022/12/26 09:23:36;;;;;;;;;;;9.60;99.90;;;;;;5103158;28;19911;-40
2022/12/26 09:26:03;;;;;;;;;;;9.60;99.90;;;;;;5106504;28;19919;-40
2022/12/26 09:28:28;;;;;;;;;;;9.60;99.90;;;;;;5125688;27;20392;-41
2022/12/26 09:30:58;;;;;;;;;;;9.60;99.90;;;;;;5134379;27;19907;-42
2022/12/26 09:33:23;;;;;;;;;;;9.60;99.90;;;;;;5113643;27;19936;-40
2022/12/26 09:35:48;;;;;;;;;;;9.60;99.90;;;;;;5108360;28;19939;-39
2022/12/26 09:38:14;;;;;;;;;;;9.60;99.90;;;;;;5102544;28;19912;-39
2022/12/26 09:40:50;;;;;;;;;;;9.60;99.90;;;;;;5094428;28;20355;-40
2022/12/26 09:43:25;;;;;;;;;;;9.60;99.90;;;;;;5112400;28;19918;-40
2022/12/26 09:46:06;;;;;;;;;;;9.70;99.90;;;;;;5113067;28;19939;-40
2022/12/26 09:48:38;;;;;;;;;;;9.60;99.90;;;;;;5112395;28;19920;-40
2022/12/26 09:51:03;;;;;;;;;;;9.60;99.90;;;;;;5109120;28;19991;-39
2022/12/26 09:53:37;;;;;;;;;;;9.70;99.90;;;;;;5103692;27;20400;-39
2022/12/26 09:56:05;;;;;;;;;;;9.70;99.90;;;;;;5106414;28;19927;-40
2022/12/26 09:58:49;;;;;;;;;;;9.70;99.90;;;;;;5097606;27;19923;-39
2022/12/26 10:01:14;;;;;;;;;;;9.70;99.90;;;;;;5095036;28;20049;-40
2022/12/26 10:03:45;;;;;;;;;;;9.80;99.90;;;;;;5125583;27;20007;-39
2022/12/26 10:06:13;;;;;;;;;;;9.80;99.90;;;;;;5131636;27;19919;-39
2022/12/26 10:08:44;;;;;;;;;;;9.80;99.90;;;;;;5103079;28;19920;-39
2022/12/26 10:11:36;;;;;;;;;;;9.80;99.90;;;;;;5112025;28;19908;-40
2022/12/26 10:14:17;;;;;;;;;;;9.80;99.90;;;;;;5108392;28;20305;-42
2022/12/26 10:16:55;;;;;;;;;;;9.80;99.90;;;;;;5102732;28;19975;-41
2022/12/26 10:19:32;;;;;;;;;;;9.80;99.90;;;;;;5116622;27;19944;-39
2022/12/26 10:22:24;;;;;;;;;;;9.70;99.90;;;;;;5110810;27;19912;-39
2022/12/26 10:24:50;;;;;;;;;;;9.40;99.90;;;;;;5117782;27;19912;-41
2022/12/26 10:27:16;;;;;;;;;;;9.10;99.90;;;;;;5103643;28;19916;-40
2022/12/26 10:29:46;;;;;;;;;;;8.90;99.90;;;;;;5112404;28;20355;-41
2022/12/26 10:32:13;;;;;;;;;;;8.80;99.90;;;;;;5094414;28;19920;-38
2022/12/26 10:34:40;;;;;;;;;;;8.70;99.90;;;;;;5098570;27;19912;-39
2022/12/26 10:37:11;;;;;;;;;;;8.70;99.90;;;;;;5092128;28;19909;-39
2022/12/26 10:39:55;;;;;;;;;;;8.60;99.90;;;;;;5092805;28;19908;-39
2022/12/26 10:42:25;;;;;;;;;;;8.60;99.90;;;;;;5092775;28;19912;-41
2022/12/26 10:44:50;;;;;;;;;;;8.60;99.90;;;;;;5107871;28;19915;-40
2022/12/26 10:47:36;;;;;;;;;;;8.50;99.90;;;;;;5112830;28;19912;-41
2022/12/26 10:50:02;;;;;;;;;;;8.40;99.90;;;;;;5100177;28;19934;-40
2022/12/26 10:52:36;;;;;;;;;;;8.40;99.90;;;;;;5092661;28;20297;-39
2022/12/26 10:55:01;;;;;;;;;;;8.40;99.90;;;;;;5108564;28;19935;-40
2022/12/26 10:57:33;;;;;;;;;;;8.30;99.90;;;;;;5112262;28;20371;-41
2022/12/26 10:59:59;;;;;;;;;;;8.40;99.90;;;;;;5103038;28;19912;-39
2022/12/26 11:02:25;;;;;;;;;;;8.40;99.90;;;;;;5109719;28;19913;-38
2022/12/26 11:04:56;;;;;;;;;;;8.30;99.90;;;;;;5109470;28;19912;-39
2022/12/26 11:07:24;;;;;;;;;;;8.30;99.90;;;;;;5099805;28;19928;-40
2022/12/26 11:09:52;;;;;;;;;;;8.30;99.90;;;;;;5099154;28;20018;-40
2022/12/26 11:12:23;;;;;;;;;;;8.30;99.90;;;;;;5115091;28;19907;-39
2022/12/26 11:14:55;;;;;;;;;;;8.30;99.90;;;;;;5111162;28;19915;-39
2022/12/26 11:17:29;;;;;;;;;;;8.20;99.90;;;;;;5097294;28;20275;-39
2022/12/26 11:20:18;;;;;;;;;;;8.20;99.90;;;;;;5095435;28;19912;-40
2022/12/26 11:22:45;;;;;;;;;;;8.10;99.90;;;;;;5091437;28;20285;-39
2022/12/26 11:25:23;;;;;;;;;;;8.00;99.90;;;;;;5126374;28;19915;-38
2022/12/26 11:27:51;;;;;;;;;;;7.90;99.90;;;;;;5132588;27;20006;-39
2022/12/26 11:30:28;;;;;;;;;;;7.80;99.90;;;;;;5111939;28;20329;-37
2022/12/26 11:33:02;;;;;;;;;;;7.80;99.90;;;;;;5112402;28;19919;-40
2022/12/26 11:35:33;;;;;;;;;;;7.80;99.90;;;;;;5109075;28;19955;-39
2022/12/26 11:38:00;;;;;;;;;;;7.90;99.90;;;;;;5110688;28;20329;-38
2022/12/26 11:40:31;;;;;;;;;;;7.90;99.90;;;;;;5110512;28;20277;-41
2022/12/26 11:42:58;;;;;;;;;;;7.90;99.90;;;;;;5118126;27;19914;-39
2022/12/26 11:45:25;;;;;;;;;;;7.90;99.90;;;;;;5134980;27;19908;-40
2022/12/26 11:47:50;;;;;;;;;;;8.00;99.90;;;;;;5116484;27;20006;-40
2022/12/26 11:50:20;;;;;;;;;;;8.00;99.90;;;;;;5116064;28;20377;-39
2022/12/26 11:53:03;;;;;;;;;;;8.00;99.90;;;;;;5115974;28;19911;-39
2022/12/26 11:55:32;;;;;;;;;;;8.00;99.90;;;;;;5116117;28;19914;-41
2022/12/26 11:58:06;;;;;;;;;;;7.90;99.90;;;;;;5117702;27;20266;-40
2022/12/26 12:00:33;;;;;;;;;;;7.90;99.90;;;;;;5135862;27;19915;-39
2022/12/26 12:02:59;;;;;;;;;;;7.90;99.90;;;;;;5136168;27;20401;-39
2022/12/26 12:05:27;;;;;;;;;;;7.90;99.90;;;;;;5127809;27;19908;-39
2022/12/26 12:08:17;;;;;;;;;;;7.80;99.90;;;;;;5106483;27;19920;-39
2022/12/26 12:10:48;;;;;;;;;;;7.90;99.90;;;;;;5102836;27;19916;-38
2022/12/26 12:13:32;;;;;;;;;;;7.90;99.90;;;;;;5095324;28;19954;-37
2022/12/26 12:16:08;;;;;;;;;;;7.80;99.90;;;;;;5094524;28;20363;-39
2022/12/26 12:18:46;;;;;;;;;;;7.80;99.90;;;;;;5106481;28;19915;-39
2022/12/26 12:21:11;;;;;;;;;;;7.80;99.90;;;;;;5114687;28;19916;-39
2022/12/26 12:23:46;;;;;;;;;;;7.80;99.90;;;;;;5110180;27;19915;-40
2022/12/26 12:26:23;;;;;;;;;;;7.90;99.90;;;;;;5105717;28;19916;-39
2022/12/26 12:28:51;;;;;;;;;;;7.90;99.90;;;;;;5108260;27;19920;-39
2022/12/26 12:31:44;;;;;;;;;;;8.00;99.90;;;;;;5126439;27;20000;-39
2022/12/26 12:34:09;;;;;;;;;;;8.00;99.90;;;;;;5106208;27;20007;-40
2022/12/26 12:36:47;;;;;;;;;;;8.00;99.90;;;;;;5094325;28;20461;-39
2022/12/26 12:39:18;;;;;;;;;;;8.20;99.90;;;;;;5097109;28;19912;-39
2022/12/26 12:41:46;;;;;;;;;;;8.10;99.90;;;;;;5103643;28;19931;-38
2022/12/26 12:44:18;;;;;;;;;;;8.10;99.90;;;;;;5094409;28;20390;-39
2022/12/26 12:46:58;;;;;;;;;;;8.20;99.90;;;;;;5094722;28;19908;-39
2022/12/26 12:49:36;;;;;;;;;;;8.20;99.90;;;;;;5094035;28;19920;-39
2022/12/26 12:52:07;;;;;;;;;;;8.20;99.90;;;;;;5094581;28;19941;-37
2022/12/26 12:54:36;;;;;;;;;;;8.20;99.90;;;;;;5094547;28;19914;-39
2022/12/26 12:57:07;;;;;;;;;;;8.20;99.90;;;;;;5098050;28;19922;-40
2022/12/26 12:59:38;;;;;;;;;;;8.30;99.90;;;;;;5108428;27;19912;-40
2022/12/26 13:02:14;;;;;;;;;;;8.40;99.90;;;;;;5102217;28;19915;-41
2022/12/26 13:04:42;;;;;;;;;;;8.50;99.90;;;;;;5134550;27;19907;-39
2022/12/26 13:07:14;;;;;;;;;;;8.50;99.90;;;;;;5134034;27;20065;-39
2022/12/26 13:09:56;;;;;;;;;;;8.40;99.90;;;;;;5114079;28;19919;-39
2022/12/26 13:12:24;;;;;;;;;;;8.40;99.90;;;;;;5112285;28;20010;-41
2022/12/26 13:14:55;;;;;;;;;;;8.40;99.90;;;;;;5111474;28;19911;-39
2022/12/26 13:17:29;;;;;;;;;;;8.30;99.90;;;;;;5102651;28;19916;-40
2022/12/26 13:19:58;;;;;;;;;;;8.40;99.90;;;;;;5106456;28;19995;-39
2022/12/26 13:24:22;;;;;;;;;;;8.30;99.90;;;;;;5114379;28;20002;-40
2022/12/26 13:25:18;;;;;;;;;;;8.30;99.90;;;;;;5113647;28;20022;-40
2022/12/26 13:27:44;;;;;;;;;;;8.40;99.90;;;;;;5112886;28;19934;-39
2022/12/26 13:30:15;;;;;;;;;;;8.40;99.90;;;;;;5106793;28;19919;-39
2022/12/26 13:32:40;;;;;;;;;;;8.30;99.90;;;;;;5111121;28;19926;-40
2022/12/26 13:35:26;;;;;;;;;;;8.30;99.90;;;;;;5111522;27;19907;-40
2022/12/26 13:37:53;;;;;;;;;;;8.30;99.90;;;;;;5114242;28;20384;-40
2022/12/26 13:40:20;;;;;;;;;;;8.30;99.90;;;;;;5093552;28;19926;-39
2022/12/26 13:45:34;;;;;;;;;;;8.40;99.90;;;;;;5077438;27;19912;-40
2022/12/26 13:48:00;;;;;;;;;;;8.40;99.90;;;;;;5119881;27;20320;-41
2022/12/26 13:50:45;;;;;;;;;;;8.50;99.90;;;;;;5121189;27;19964;-39
2022/12/26 13:53:25;;;;;;;;;;;8.50;99.90;;;;;;5116893;27;19930;-40
2022/12/26 13:56:13;;;;;;;;;;;8.60;99.90;;;;;;5103619;27;20028;-40
2022/12/26 13:58:48;;;;;;;;;;;8.50;99.90;;;;;;5082739;28;20430;-40
2022/12/26 14:01:19;;;;;;;;;;;8.50;99.90;;;;;;5108369;28;19908;-41
2022/12/26 14:04:03;;;;;;;;;;;8.50;99.90;;;;;;5101455;28;19912;-40
2022/12/26 14:06:47;;;;;;;;;;;8.60;99.90;;;;;;5091898;28;19912;-40
2022/12/26 14:09:35;;;;;;;;;;;8.60;99.90;;;;;;5100019;28;19920;-39
2022/12/26 14:12:19;;;;;;;;;;;8.60;99.90;;;;;;5093889;28;19908;-40
2022/12/26 14:15:00;;;;;;;;;;;8.60;99.90;;;;;;5093432;28;19994;-39
2022/12/26 14:17:35;;;;;;;;;;;8.50;99.90;;;;;;5104630;28;19908;-41
2022/12/26 14:20:03;;;;;;;;;;;8.40;99.90;;;;;;5111700;28;20370;-40
2022/12/26 14:22:31;;;;;;;;;;;8.20;99.90;;;;;;5096144;28;19915;-40
2022/12/26 14:25:01;;;;;;;;;;;8.10;99.90;;;;;;5108667;28;19908;-40
2022/12/26 14:27:27;;;;;;;;;;;8.00;99.90;;;;;;5112318;27;19915;-39
2022/12/26 14:30:05;;;;;;;;;;;7.90;99.90;;;;;;5103832;28;19919;-41
2022/12/26 14:32:30;;;;;;;;;;;7.80;99.90;;;;;;5111828;28;19973;-40
2022/12/26 14:34:56;;;;;;;;;;;7.70;99.90;;;;;;5111903;28;19912;-40
2022/12/26 14:37:30;;;;;;;;;;;7.70;99.90;;;;;;5110369;28;19915;-39
2022/12/26 14:40:03;;;;;;;;;;;7.60;99.90;;;;;;5110320;28;19907;-40
2022/12/26 14:45:28;;;;;;;;;;;7.50;99.90;;;;;;5113428;28;19915;-41
2022/12/26 14:47:54;;;;;;;;;;;7.40;99.90;;;;;;5103844;28;20366;-38
2022/12/26 14:50:36;;;;;;;;;;;7.40;99.90;;;;;;5109858;28;19911;-40
2022/12/26 14:53:21;;;;;;;;;;;7.30;99.90;;;;;;5101978;28;20374;-40
2022/12/26 14:55:48;;;;;;;;;;;7.20;99.90;;;;;;5111450;28;19955;-41
2022/12/26 14:58:19;;;;;;;;;;;7.20;99.90;;;;;;5108584;28;19912;-39
2022/12/26 15:00:45;;;;;;;;;;;7.10;99.90;;;;;;5111289;28;20006;-40
2022/12/26 15:03:40;;;;;;;;;;;7.10;99.90;;;;;;5113801;28;20011;-40
2022/12/26 15:06:29;;;;;;;;;;;7.00;99.90;;;;;;5096082;28;20527;-40
2022/12/26 15:09:20;;;;;;;;;;;7.00;99.90;;;;;;5058883;28;19920;-40
2022/12/26 15:12:00;;;;;;;;;;;6.90;99.90;;;;;;5091164;28;20391;-40
2022/12/26 15:14:40;;;;;;;;;;;6.90;99.90;;;;;;5116954;28;20309;-39
2022/12/26 15:17:06;;;;;;;;;;;6.80;99.90;;;;;;5116260;28;19923;-40
2022/12/26 15:19:31;;;;;;;;;;;6.70;99.90;;;;;;5109670;28;19916;-40
2022/12/26 15:22:05;;;;;;;;;;;6.70;99.90;;;;;;5099766;28;19908;-40
2022/12/26 15:24:49;;;;;;;;;;;6.60;99.90;;;;;;5113941;28;19920;-40
2022/12/26 15:27:21;;;;;;;;;;;6.60;99.90;;;;;;5125319;27;19907;-40
2022/12/26 15:30:02;;;;;;;;;;;6.60;99.90;;;;;;5132396;27;19932;-39
2022/12/26 15:32:45;;;;;;;;;;;6.60;99.90;;;;;;5109848;28;19943;-41
2022/12/26 15:35:17;;;;;;;;;;;6.60;99.90;;;;;;5096013;28;19912;-39
2022/12/26 15:37:55;;;;;;;;;;;6.50;99.90;;;;;;5115280;27;19908;-39
2022/12/26 15:40:25;;;;;;;;;;;6.50;99.90;;;;;;5107018;28;19965;-41
2022/12/26 15:43:10;;;;;;;;;;;6.40;99.90;;;;;;5131916;27;19911;-39
2022/12/26 15:45:44;;;;;;;;;;;6.40;99.90;;;;;;5095046;28;19908;-40
2022/12/26 15:48:25;;;;;;;;;;;6.30;99.90;;;;;;5097917;28;19916;-41
2022/12/26 15:50:56;;;;;;;;;;;6.20;99.90;;;;;;5104141;28;19995;-40
2022/12/26 15:53:32;;;;;;;;;;;6.10;99.90;;;;;;5113601;28;19966;-40
2022/12/26 15:56:06;;;;;;;;;;;6.10;99.90;;;;;;5111399;28;20408;-39
2022/12/26 15:58:31;;;;;;;;;;;6.10;99.90;;;;;;5110498;28;19912;-39
2022/12/26 16:00:57;;;;;;;;;;;6.00;99.90;;;;;;5114010;28;19908;-41
2022/12/26 16:04:01;;;;;;;;;;;6.00;99.90;;;;;;5115362;28;19950;-39
2022/12/26 16:06:44;;;;;;;;;;;6.00;99.90;;;;;;5047935;28;19916;-40
2022/12/26 16:09:14;;;;;;;;;;;6.00;99.90;;;;;;5049421;28;19917;-40
2022/12/26 16:11:56;;;;;;;;;;;6.00;99.90;;;;;;5088389;28;20271;-40
2022/12/26 16:14:29;;;;;;;;;;;6.00;99.90;;;;;;5111929;28;19957;-40
2022/12/26 16:17:08;;;;;;;;;;;5.90;99.90;;;;;;5112972;28;19990;-40
2022/12/26 16:19:33;;;;;;;;;;;5.90;99.90;;;;;;5111740;28;19947;-40
2022/12/26 16:24:46;;;;;;;;;;;5.70;99.90;;;;;;5114965;27;19934;-42
2022/12/26 16:27:16;;;;;;;;;;;5.60;99.90;;;;;;5109158;28;19915;-39
2022/12/26 16:29:46;;;;;;;;;;;5.50;99.90;;;;;;5110388;28;19992;-39
2022/12/26 16:32:15;;;;;;;;;;;5.50;99.90;;;;;;5114569;28;19924;-40
2022/12/26 16:34:40;;;;;;;;;;;5.50;99.90;;;;;;5111328;28;20343;-40
2022/12/26 16:37:06;;;;;;;;;;;5.40;99.90;;;;;;5114991;27;19915;-39
2022/12/26 16:39:31;;;;;;;;;;;5.40;99.90;;;;;;5114767;28;19919;-41
2022/12/26 16:42:01;;;;;;;;;;;5.30;99.90;;;;;;5116592;27;19915;-40
2022/12/26 16:44:29;;;;;;;;;;;5.30;99.90;;;;;;5115258;28;19908;-40
2022/12/26 16:46:54;;;;;;;;;;;5.20;99.90;;;;;;5114135;28;19977;-39
2022/12/26 16:49:23;;;;;;;;;;;5.30;99.90;;;;;;5113197;28;19919;-40
2022/12/26 16:51:48;;;;;;;;;;;5.20;99.90;;;;;;5103639;28;19939;-40
2022/12/26 16:54:20;;;;;;;;;;;5.10;99.90;;;;;;5095087;28;20339;-40
2022/12/26 16:56:49;;;;;;;;;;;5.10;99.90;;;;;;5094621;28;20298;-41